createdAt,value
2017-07-03T00:02:22.082Z,14.10
2017-07-03T00:04:49.611Z,14.10
2017-07-03T00:07:17.938Z,14.10
2017-07-03T00:09:45.462Z,14.10
2017-07-03T00:12:13.787Z,14.10
2017-07-03T00:14:41.321Z,14.10
2017-07-03T00:17:08.876Z,14.20
2017-07-03T00:19:36.410Z,14.20
2017-07-03T00:22:04.743Z,14.20
2017-07-03T00:24:32.274Z,14.20
2017-07-03T00:26:59.835Z,14.20
2017-07-03T00:29:27.382Z,14.20
2017-07-03T00:31:54.940Z,14.20
2017-07-03T00:34:22.478Z,14.20
2017-07-03T00:36:50.806Z,14.30
2017-07-03T00:39:18.343Z,14.30
2017-07-03T00:41:45.906Z,14.20
2017-07-03T00:44:13.437Z,14.20
2017-07-03T00:46:41.775Z,14.10
2017-07-03T00:49:09.304Z,14.10
2017-07-03T00:51:36.842Z,14.10
2017-07-03T00:54:05.171Z,14.10
2017-07-03T00:56:32.702Z,14.00
2017-07-03T00:59:00.276Z,14.00
2017-07-03T01:01:27.802Z,14.10
2017-07-03T01:03:56.128Z,14.00
2017-07-03T01:06:23.662Z,14.00
2017-07-03T01:08:51.210Z,14.00
2017-07-03T01:11:18.742Z,14.10
2017-07-03T01:13:47.065Z,14.10
2017-07-03T01:16:14.600Z,14.10
2017-07-03T01:18:42.161Z,14.10
2017-07-03T01:21:09.707Z,14.10
2017-07-03T01:23:38.031Z,14.20
2017-07-03T01:26:05.566Z,14.20
2017-07-03T01:28:33.146Z,14.20
2017-07-03T01:31:00.683Z,14.20
2017-07-03T01:33:28.240Z,14.20
2017-07-03T01:35:55.772Z,14.30
2017-07-03T01:38:23.337Z,14.30
2017-07-03T01:40:51.647Z,14.30
2017-07-03T01:43:19.206Z,14.30
2017-07-03T01:45:46.735Z,14.30
2017-07-03T01:48:14.287Z,14.30
2017-07-03T01:50:42.616Z,14.40
2017-07-03T01:53:10.148Z,14.30
2017-07-03T01:55:37.718Z,14.40
2017-07-03T01:58:05.251Z,14.40
2017-07-03T02:00:33.583Z,14.40
2017-07-03T02:03:01.114Z,14.40
2017-07-03T02:05:28.675Z,14.40
2017-07-03T02:07:56.204Z,14.40
2017-07-03T02:10:24.546Z,14.40
2017-07-03T02:12:52.087Z,14.40
2017-07-03T02:15:19.651Z,14.40
2017-07-03T02:17:47.193Z,14.40
2017-07-03T02:20:14.755Z,14.40
2017-07-03T02:22:42.293Z,14.40
2017-07-03T02:25:10.624Z,14.40
2017-07-03T02:27:38.155Z,14.30
2017-07-03T02:30:05.724Z,14.40
2017-07-03T02:32:33.264Z,14.30
2017-07-03T02:35:00.839Z,14.30
2017-07-03T02:37:28.372Z,14.30
2017-07-03T02:39:56.711Z,14.40
2017-07-03T02:42:24.246Z,14.40
2017-07-03T02:44:51.777Z,14.40
2017-07-03T02:47:19.339Z,14.40
2017-07-03T02:49:46.874Z,14.30
2017-07-03T02:52:14.439Z,14.30
2017-07-03T02:54:42.754Z,14.30
2017-07-03T02:57:10.315Z,14.30
2017-07-03T02:59:37.855Z,14.30
2017-07-03T03:02:05.429Z,14.20
2017-07-03T03:04:32.967Z,14.30
2017-07-03T03:07:00.537Z,14.30
2017-07-03T03:09:28.075Z,14.30
2017-07-03T03:11:56.412Z,14.20
2017-07-03T03:14:23.958Z,14.20
2017-07-03T03:16:51.515Z,14.30
2017-07-03T03:19:19.058Z,14.30
2017-07-03T03:21:46.622Z,14.30
2017-07-03T03:24:14.154Z,14.30
2017-07-03T03:26:42.479Z,14.30
2017-07-03T03:29:10.009Z,14.30
2017-07-03T03:31:37.567Z,14.30
2017-07-03T03:34:05.103Z,14.30
2017-07-03T03:36:32.640Z,14.30
2017-07-03T03:39:00.199Z,14.30
2017-07-03T03:41:27.729Z,14.30
2017-07-03T03:43:55.290Z,14.30
2017-07-03T03:46:22.831Z,14.30
2017-07-03T03:48:50.392Z,14.40
2017-07-03T03:51:17.931Z,14.40
2017-07-03T03:53:46.263Z,14.50
2017-07-03T03:56:13.805Z,14.40
2017-07-03T03:58:41.356Z,14.40
2017-07-03T04:01:08.894Z,14.50
2017-07-03T04:03:36.455Z,14.50
2017-07-03T04:06:04.000Z,14.50
2017-07-03T04:08:32.335Z,14.50
2017-07-03T04:10:59.869Z,14.50
2017-07-03T04:13:27.427Z,14.60
2017-07-03T04:15:54.962Z,14.50
2017-07-03T04:18:22.523Z,14.50
2017-07-03T04:20:50.819Z,14.50
2017-07-03T04:23:18.383Z,14.50
2017-07-03T04:25:45.924Z,14.40
2017-07-03T04:28:13.497Z,14.50
2017-07-03T04:30:41.034Z,14.50
2017-07-03T04:33:09.343Z,14.50
2017-07-03T04:35:36.907Z,14.50
2017-07-03T04:38:04.448Z,14.50
2017-07-03T04:40:32.011Z,14.60
2017-07-03T04:42:59.543Z,14.60
2017-07-03T04:45:27.105Z,14.50
2017-07-03T04:47:55.413Z,14.50
2017-07-03T04:50:22.978Z,14.50
2017-07-03T04:52:50.514Z,14.50
2017-07-03T04:55:18.070Z,14.60
2017-07-03T04:57:46.377Z,14.70
2017-07-03T05:00:13.937Z,14.60
2017-07-03T05:02:41.466Z,14.70
2017-07-03T05:05:09.026Z,14.80
2017-07-03T05:07:37.321Z,15.00
2017-07-03T05:10:04.890Z,15.00
2017-07-03T05:12:33.330Z,15.30
2017-07-03T05:15:00.927Z,15.50
2017-07-03T05:17:28.459Z,15.30
2017-07-03T05:19:56.786Z,15.30
2017-07-03T05:22:24.318Z,15.40
2017-07-03T05:24:52.791Z,15.20
2017-07-03T05:27:20.333Z,15.10
2017-07-03T05:29:48.635Z,15.10
2017-07-03T05:32:16.196Z,15.00
2017-07-03T05:34:43.739Z,15.10
2017-07-03T05:37:12.071Z,15.10
2017-07-03T05:39:39.598Z,15.00
2017-07-03T05:42:07.154Z,15.30
2017-07-03T05:44:34.692Z,15.70
2017-07-03T05:47:03.028Z,16.00
2017-07-03T05:49:30.555Z,16.00
2017-07-03T05:51:58.116Z,16.20
2017-07-03T05:54:25.649Z,16.10
2017-07-03T05:56:53.975Z,16.10
2017-07-03T05:59:21.507Z,16.00
2017-07-03T06:01:49.063Z,16.20
2017-07-03T06:04:16.594Z,16.30
2017-07-03T06:06:44.923Z,16.60
2017-07-03T06:09:12.469Z,16.50
2017-07-03T06:11:40.027Z,17.10
2017-07-03T06:14:07.554Z,17.50
2017-07-03T06:16:35.115Z,17.30
2017-07-03T06:19:03.406Z,17.30
2017-07-03T06:21:31.722Z,17.10
2017-07-03T06:23:59.251Z,17.10
2017-07-03T06:26:26.815Z,17.00
2017-07-03T06:28:54.347Z,17.20
2017-07-03T06:31:22.659Z,17.30
2017-07-03T06:33:50.227Z,17.30
2017-07-03T06:36:17.755Z,17.10
2017-07-03T06:38:46.080Z,17.00
2017-07-03T06:41:13.613Z,17.00
2017-07-03T06:43:41.170Z,16.90
2017-07-03T06:46:08.706Z,16.90
2017-07-03T06:48:37.030Z,16.70
2017-07-03T06:51:04.562Z,16.70
2017-07-03T06:53:32.122Z,16.70
2017-07-03T06:55:59.665Z,17.00
2017-07-03T06:58:27.998Z,17.10
2017-07-03T07:00:55.540Z,17.10
2017-07-03T07:03:23.101Z,17.00
2017-07-03T07:05:50.642Z,16.80
2017-07-03T07:08:18.206Z,16.60
2017-07-03T07:10:45.739Z,16.70
2017-07-03T07:13:14.078Z,16.80
2017-07-03T07:15:41.606Z,16.80
2017-07-03T07:18:09.179Z,17.10
2017-07-03T07:20:36.715Z,17.50
2017-07-03T07:23:04.246Z,17.50
2017-07-03T07:25:32.569Z,17.80
2017-07-03T07:28:00.103Z,17.70
2017-07-03T07:30:28.423Z,17.80
2017-07-03T07:32:55.955Z,17.70
2017-07-03T07:35:23.511Z,18.20
2017-07-03T07:37:51.039Z,18.70
2017-07-03T07:40:19.367Z,19.40
2017-07-03T07:42:46.903Z,19.30
2017-07-03T07:45:14.473Z,19.40
2017-07-03T07:47:42.006Z,19.60
2017-07-03T07:50:10.326Z,18.70
2017-07-03T07:52:37.867Z,18.70
2017-07-03T07:55:05.421Z,18.60
2017-07-03T07:57:32.947Z,18.50
2017-07-03T08:00:00.507Z,18.70
2017-07-03T08:02:28.034Z,18.90
2017-07-03T08:04:55.587Z,19.00
2017-07-03T08:07:23.118Z,19.30
2017-07-03T08:09:50.675Z,18.90
2017-07-03T08:12:18.211Z,18.70
2017-07-03T08:14:46.551Z,19.20
2017-07-03T08:17:14.080Z,19.20
2017-07-03T08:19:41.611Z,19.10
2017-07-03T08:22:09.932Z,19.70
2017-07-03T08:24:37.454Z,19.70
2017-07-03T08:27:05.771Z,19.10
2017-07-03T08:29:33.307Z,19.10
2017-07-03T08:32:00.860Z,18.60
2017-07-03T08:34:28.386Z,18.90
2017-07-03T08:36:55.934Z,19.10
2017-07-03T08:39:23.471Z,19.20
2017-07-03T08:41:51.021Z,19.00
2017-07-03T08:44:18.542Z,19.30
2017-07-03T08:46:46.866Z,19.10
2017-07-03T08:49:14.391Z,19.00
2017-07-03T08:51:41.942Z,19.00
2017-07-03T08:54:10.235Z,18.90
2017-07-03T08:56:37.800Z,18.90
2017-07-03T08:59:05.334Z,19.10
2017-07-03T09:01:33.662Z,20.20
2017-07-03T09:04:01.196Z,20.20
2017-07-03T09:06:28.746Z,20.40
2017-07-03T09:08:56.272Z,19.70
2017-07-03T09:11:23.841Z,20.40
2017-07-03T09:13:51.370Z,20.10
2017-07-03T09:16:18.900Z,20.20
2017-07-03T09:18:46.447Z,19.80
2017-07-03T09:21:13.983Z,19.50
2017-07-03T09:23:42.302Z,19.20
2017-07-03T09:26:09.838Z,19.20
2017-07-03T09:28:37.386Z,19.60
2017-07-03T09:31:05.690Z,20.50
2017-07-03T09:33:33.243Z,20.50
2017-07-03T09:36:00.774Z,20.90
2017-07-03T09:38:29.096Z,21.10
2017-07-03T09:40:56.635Z,21.10
2017-07-03T09:43:24.195Z,20.50
2017-07-03T09:45:51.728Z,20.70
2017-07-03T09:48:20.049Z,20.90
2017-07-03T09:50:47.582Z,20.90
2017-07-03T09:53:15.138Z,21.00
2017-07-03T09:55:42.676Z,21.30
2017-07-03T09:58:11.015Z,21.30
2017-07-03T10:00:38.542Z,21.20
2017-07-03T10:03:06.102Z,20.90
2017-07-03T10:05:33.642Z,20.90
2017-07-03T10:08:01.931Z,21.40
2017-07-03T10:10:30.258Z,21.40
2017-07-03T10:12:57.786Z,21.40
2017-07-03T10:15:25.339Z,21.40
2017-07-03T10:17:52.875Z,21.70
2017-07-03T10:20:21.191Z,22.30
2017-07-03T10:22:48.719Z,22.30
2017-07-03T10:25:17.055Z,22.30
2017-07-03T10:27:44.582Z,22.20
2017-07-03T10:30:12.143Z,22.20
2017-07-03T10:32:39.667Z,21.90
2017-07-03T10:35:07.986Z,21.80
2017-07-03T10:37:35.522Z,21.80
2017-07-03T10:40:03.071Z,22.20
2017-07-03T10:42:30.603Z,22.50
2017-07-03T10:44:58.154Z,22.50
2017-07-03T10:47:25.674Z,22.50
2017-07-03T10:49:53.231Z,22.70
2017-07-03T10:52:20.766Z,22.70
2017-07-03T10:54:49.089Z,22.10
2017-07-03T10:57:16.621Z,22.10
2017-07-03T10:59:44.175Z,22.60
2017-07-03T11:02:12.472Z,22.20
2017-07-03T11:04:39.999Z,22.20
2017-07-03T11:07:08.321Z,21.60
2017-07-03T11:09:35.859Z,21.60
2017-07-03T11:12:03.411Z,21.60
2017-07-03T11:14:30.935Z,21.80
2017-07-03T11:16:58.492Z,22.20
2017-07-03T11:19:26.022Z,22.10
2017-07-03T11:21:53.578Z,22.70
2017-07-03T11:24:21.111Z,22.80
2017-07-03T11:26:48.668Z,22.60
2017-07-03T11:29:16.196Z,22.30
2017-07-03T11:31:43.747Z,22.40
2017-07-03T11:34:11.279Z,22.40
2017-07-03T11:36:38.834Z,22.70
2017-07-03T11:39:06.403Z,23.20
2017-07-03T11:41:33.955Z,22.50
2017-07-03T11:44:01.486Z,22.10
2017-07-03T11:46:29.039Z,22.00
2017-07-03T11:48:56.581Z,22.30
2017-07-03T11:51:24.146Z,22.70
2017-07-03T11:53:52.442Z,22.90
2017-07-03T11:56:20.006Z,22.90
2017-07-03T11:58:47.539Z,23.40
2017-07-03T12:01:15.063Z,23.70
2017-07-03T12:03:42.619Z,23.20
2017-07-03T12:06:10.155Z,23.30
2017-07-03T12:08:37.712Z,23.50
2017-07-03T12:11:05.243Z,24.00
2017-07-03T12:13:33.567Z,24.20
2017-07-03T12:16:01.099Z,24.10
2017-07-03T12:18:28.651Z,24.00
2017-07-03T12:20:56.182Z,23.70
2017-07-03T12:23:23.731Z,23.40
2017-07-03T12:25:51.256Z,23.40
2017-07-03T12:28:18.823Z,23.40
2017-07-03T12:30:46.362Z,23.40
2017-07-03T12:33:13.915Z,23.60
2017-07-03T12:35:41.462Z,23.30
2017-07-03T12:38:09.787Z,23.30
2017-07-03T12:40:37.324Z,23.30
2017-07-03T12:43:04.871Z,23.90
2017-07-03T12:45:32.409Z,24.10
2017-07-03T12:48:00.729Z,23.00
2017-07-03T12:50:28.254Z,23.00
2017-07-03T12:52:56.552Z,23.40
2017-07-03T12:55:24.107Z,23.30
2017-07-03T12:57:51.637Z,24.10
2017-07-03T13:00:19.198Z,24.00
2017-07-03T13:02:47.489Z,23.90
2017-07-03T13:05:15.047Z,23.90
2017-07-03T13:07:42.580Z,24.30
2017-07-03T13:10:10.142Z,24.40
2017-07-03T13:12:37.671Z,24.40
2017-07-03T13:15:05.219Z,23.90
2017-07-03T13:17:32.744Z,24.20
2017-07-03T13:20:01.066Z,23.80
2017-07-03T13:22:28.591Z,23.80
2017-07-03T13:24:56.147Z,24.20
2017-07-03T13:27:23.674Z,24.20
2017-07-03T13:29:51.224Z,24.50
2017-07-03T13:32:18.756Z,24.40
2017-07-03T13:34:46.306Z,24.30
2017-07-03T13:37:13.839Z,24.50
2017-07-03T13:39:42.157Z,23.40
2017-07-03T13:42:09.691Z,23.30
2017-07-03T13:44:37.251Z,23.20
2017-07-03T13:47:04.785Z,23.60
2017-07-03T13:49:32.319Z,23.80
2017-07-03T13:51:59.872Z,24.00
2017-07-03T13:54:27.405Z,24.20
2017-07-03T13:56:54.954Z,24.90
2017-07-03T13:59:22.487Z,25.50
2017-07-03T14:01:50.035Z,25.20
2017-07-03T14:04:17.565Z,25.30
2017-07-03T14:06:45.125Z,25.20
2017-07-03T14:09:12.667Z,24.90
2017-07-03T14:11:40.246Z,24.30
2017-07-03T14:14:07.780Z,23.60
2017-07-03T14:16:35.332Z,23.70
2017-07-03T14:19:02.863Z,23.50
2017-07-03T14:21:31.187Z,23.00
2017-07-03T14:23:58.723Z,22.90
2017-07-03T14:26:26.283Z,23.30
2017-07-03T14:28:53.844Z,24.30
2017-07-03T14:31:21.403Z,24.60
2017-07-03T14:33:48.929Z,24.70
2017-07-03T14:36:17.247Z,25.10
2017-07-03T14:38:44.779Z,25.10
2017-07-03T14:41:13.107Z,25.40
2017-07-03T14:43:40.635Z,25.50
2017-07-03T14:46:08.159Z,24.90
2017-07-03T14:48:35.718Z,24.50
2017-07-03T14:51:03.246Z,24.60
2017-07-03T14:53:30.807Z,24.40
2017-07-03T14:55:58.339Z,24.00
2017-07-03T14:58:25.894Z,23.60
2017-07-03T15:00:53.422Z,24.00
2017-07-03T15:03:21.740Z,24.40
2017-07-03T15:05:49.270Z,24.30
2017-07-03T15:08:17.586Z,24.70
2017-07-03T15:10:45.111Z,24.70
2017-07-03T15:13:13.420Z,25.30
2017-07-03T15:15:40.946Z,25.30
2017-07-03T15:18:09.271Z,24.70
2017-07-03T15:20:36.951Z,24.70
2017-07-03T15:23:04.507Z,24.30
2017-07-03T15:25:32.044Z,24.50
2017-07-03T15:27:59.609Z,24.50
2017-07-03T15:30:27.144Z,24.50
2017-07-03T15:32:54.695Z,24.20
2017-07-03T15:35:22.223Z,24.20
2017-07-03T15:37:49.758Z,24.00
2017-07-03T15:40:17.310Z,24.00
2017-07-03T15:42:44.834Z,24.00
2017-07-03T15:45:12.387Z,23.70
2017-07-03T15:47:39.929Z,23.70
2017-07-03T15:50:08.255Z,24.50
2017-07-03T15:52:35.780Z,24.50
2017-07-03T15:55:03.330Z,24.40
2017-07-03T15:57:31.624Z,24.20
2017-07-03T15:59:59.187Z,24.20
2017-07-03T16:02:26.720Z,24.00
2017-07-03T16:04:55.041Z,24.00
2017-07-03T16:07:22.578Z,24.00
2017-07-03T16:09:50.129Z,23.90
2017-07-03T16:12:18.430Z,24.10
2017-07-03T16:14:45.978Z,24.10
2017-07-03T16:17:13.511Z,24.00
2017-07-03T16:19:41.824Z,24.00
2017-07-03T16:22:09.351Z,24.00
2017-07-03T16:24:37.669Z,24.90
2017-07-03T16:27:05.194Z,24.90
2017-07-03T16:29:33.514Z,25.80
2017-07-03T16:32:01.048Z,25.80
2017-07-03T16:34:28.610Z,26.20
2017-07-03T16:36:56.145Z,26.00
2017-07-03T16:39:23.686Z,26.10
2017-07-03T16:41:51.234Z,25.60
2017-07-03T16:44:18.765Z,25.30
2017-07-03T16:46:46.323Z,25.80
2017-07-03T16:49:13.851Z,26.50
2017-07-03T16:51:42.179Z,25.80
2017-07-03T16:54:09.707Z,25.80
2017-07-03T16:56:37.263Z,26.70
2017-07-03T16:59:04.793Z,26.90
2017-07-03T17:01:33.115Z,26.40
2017-07-03T17:04:00.642Z,26.40
2017-07-03T17:06:28.979Z,26.90
2017-07-03T17:08:56.508Z,26.80
2017-07-03T17:11:24.071Z,26.80
2017-07-03T17:13:51.599Z,26.20
2017-07-03T17:16:19.927Z,26.40
2017-07-03T17:18:47.450Z,26.40
2017-07-03T17:21:15.007Z,25.30
2017-07-03T17:23:42.539Z,26.10
2017-07-03T17:26:10.864Z,24.60
2017-07-03T17:28:38.404Z,24.60
2017-07-03T17:31:05.971Z,24.00
2017-07-03T17:33:33.509Z,23.50
2017-07-03T17:36:01.807Z,25.10
2017-07-03T17:38:29.368Z,25.10
2017-07-03T17:40:56.900Z,25.50
2017-07-03T17:43:25.227Z,24.70
2017-07-03T17:45:52.755Z,24.70
2017-07-03T17:48:20.315Z,24.20
2017-07-03T17:50:47.852Z,23.50
2017-07-03T17:53:16.172Z,23.00
2017-07-03T17:55:43.703Z,22.90
2017-07-03T17:58:11.258Z,22.70
2017-07-03T18:00:39.551Z,22.40
2017-07-03T18:03:07.109Z,22.40
2017-07-03T18:05:34.640Z,22.30
2017-07-03T18:08:02.198Z,22.20
2017-07-03T18:10:29.737Z,22.10
2017-07-03T18:12:57.291Z,22.00
2017-07-03T18:15:24.820Z,22.00
2017-07-03T18:17:52.392Z,22.00
2017-07-03T18:20:19.930Z,21.90
2017-07-03T18:22:47.477Z,21.90
2017-07-03T18:25:15.030Z,21.70
2017-07-03T18:27:42.616Z,21.70
2017-07-03T18:30:10.151Z,21.70
2017-07-03T18:32:38.464Z,21.40
2017-07-03T18:35:06.021Z,21.40
2017-07-03T18:37:33.552Z,21.40
2017-07-03T18:40:01.123Z,21.40
2017-07-03T18:42:28.668Z,21.30
2017-07-03T18:44:56.219Z,21.10
2017-07-03T18:47:24.522Z,21.30
2017-07-03T18:49:52.083Z,21.30
2017-07-03T18:52:19.611Z,21.20
2017-07-03T18:54:47.941Z,20.90
2017-07-03T18:57:15.466Z,20.80
2017-07-03T18:59:43.027Z,20.80
2017-07-03T19:02:11.323Z,20.80
2017-07-03T19:04:38.890Z,20.80
2017-07-03T19:07:06.410Z,20.80
2017-07-03T19:09:34.733Z,20.50
2017-07-03T19:12:02.259Z,20.50
2017-07-03T19:14:30.585Z,20.40
2017-07-03T19:16:58.123Z,20.30
2017-07-03T19:19:25.672Z,20.40
2017-07-03T19:21:53.208Z,20.20
2017-07-03T19:24:20.787Z,20.10
2017-07-03T19:26:48.925Z,20.00
2017-07-03T19:29:16.527Z,19.80
2017-07-03T19:31:45.055Z,19.60
2017-07-03T19:34:13.387Z,19.30
2017-07-03T19:36:40.992Z,19.20
2017-07-03T19:39:08.679Z,19.10
2017-07-03T19:41:37.034Z,19.10
2017-07-03T19:44:04.572Z,19.10
2017-07-03T19:46:32.160Z,19.20
2017-07-03T19:48:59.726Z,19.20
2017-07-03T19:51:28.087Z,19.10
2017-07-03T19:53:55.821Z,19.10
2017-07-03T19:56:23.396Z,19.20
2017-07-03T19:58:50.935Z,19.30
2017-07-03T20:01:18.492Z,19.30
2017-07-03T20:03:46.038Z,19.20
2017-07-03T20:06:13.603Z,19.30
2017-07-03T20:08:41.134Z,19.40
2017-07-03T20:11:08.706Z,19.40
2017-07-03T20:13:37.017Z,19.40
2017-07-03T20:16:04.587Z,19.40
2017-07-03T20:18:32.134Z,19.40
2017-07-03T20:20:59.701Z,19.40
2017-07-03T20:23:27.244Z,19.30
2017-07-03T20:25:54.824Z,19.20
2017-07-03T20:28:22.362Z,19.10
2017-07-03T20:30:49.899Z,19.10
2017-07-03T20:33:18.236Z,19.20
2017-07-03T20:35:45.773Z,19.20
2017-07-03T20:38:13.337Z,19.20
2017-07-03T20:40:40.882Z,19.00
2017-07-03T20:43:08.438Z,18.90
2017-07-03T20:45:35.974Z,18.80
2017-07-03T20:48:04.295Z,18.70
2017-07-03T20:50:31.831Z,18.70
2017-07-03T20:52:59.391Z,18.60
2017-07-03T20:55:26.928Z,18.50
2017-07-03T20:57:55.251Z,18.40
2017-07-03T21:00:22.787Z,18.30
2017-07-03T21:02:50.347Z,18.40
2017-07-03T21:05:17.883Z,18.40
2017-07-03T21:07:46.217Z,18.30
2017-07-03T21:10:13.981Z,18.30
2017-07-03T21:12:41.652Z,18.30
2017-07-03T21:15:09.195Z,18.30
2017-07-03T21:17:36.756Z,18.30
2017-07-03T21:20:04.284Z,18.30
2017-07-03T21:22:31.846Z,18.20
2017-07-03T21:24:59.384Z,18.20
2017-07-03T21:27:27.689Z,18.00
2017-07-03T21:29:55.247Z,18.00
2017-07-03T21:32:22.790Z,18.00
2017-07-03T21:34:51.123Z,18.00
2017-07-03T21:37:18.652Z,17.90
2017-07-03T21:39:46.227Z,18.00
2017-07-03T21:42:13.750Z,18.00
2017-07-03T21:47:41.203Z,18.10
2017-07-03T21:50:08.764Z,18.10
2017-07-03T21:52:36.312Z,18.30
2017-07-03T21:55:03.863Z,18.20
2017-07-03T21:57:31.391Z,18.20
2017-07-03T21:59:58.947Z,18.20
2017-07-03T22:02:26.474Z,18.20
2017-07-03T22:04:54.047Z,18.00
2017-07-03T22:07:22.343Z,17.80
2017-07-03T22:09:49.899Z,17.80
2017-07-03T22:12:17.428Z,17.60
2017-07-03T22:14:50.792Z,17.50
2017-07-03T22:17:18.322Z,17.40
2017-07-03T22:19:45.875Z,17.30
2017-07-03T22:22:13.402Z,17.20
2017-07-03T22:24:41.726Z,17.10
2017-07-03T22:27:09.255Z,17.10
2017-07-03T22:29:36.809Z,17.20
2017-07-03T22:50:49.738Z,16.80
2017-07-03T22:53:17.266Z,16.80
2017-07-03T22:55:44.828Z,16.80
2017-07-03T22:58:12.356Z,16.80
2017-07-03T23:00:39.911Z,16.90
2017-07-03T23:03:07.443Z,17.00
2017-07-03T23:05:34.995Z,17.00
2017-07-03T23:08:02.551Z,17.00
2017-07-03T23:10:30.111Z,17.00
2017-07-03T23:12:57.647Z,17.00
2017-07-03T23:15:25.174Z,17.00
2017-07-03T23:17:52.727Z,17.10
2017-07-03T23:20:20.259Z,17.20
2017-07-03T23:22:48.570Z,17.30
2017-07-03T23:25:16.094Z,17.30
2017-07-03T23:27:44.422Z,17.20
2017-07-03T23:30:11.950Z,17.20
2017-07-03T23:32:39.514Z,17.20
2017-07-03T23:35:07.047Z,17.10
2017-07-03T23:37:34.602Z,17.10
2017-07-03T23:40:02.136Z,17.10
2017-07-03T23:42:29.686Z,17.10
2017-07-03T23:44:57.216Z,17.00
2017-07-03T23:47:24.777Z,16.90
2017-07-03T23:49:52.306Z,16.80
2017-07-03T23:52:20.627Z,16.90
2017-07-03T23:54:48.154Z,16.90
2017-07-03T23:57:15.712Z,16.80
2017-07-03T23:59:44.011Z,16.50
